createdAt,value
2018-07-03T00:02:12.107Z,17.77
2018-07-03T00:04:41.168Z,17.71
2018-07-03T00:07:10.270Z,17.65
2018-07-03T00:09:39.331Z,17.45
2018-07-03T00:12:08.420Z,17.37
2018-07-03T00:14:37.700Z,17.34
2018-07-03T00:17:12.068Z,17.26
2018-07-03T00:19:41.132Z,17.29
2018-07-03T00:22:10.244Z,17.34
2018-07-03T00:24:39.311Z,17.26
2018-07-03T00:27:08.620Z,17.27
2018-07-03T00:29:37.693Z,17.22
2018-07-03T00:32:07.012Z,17.28
2018-07-03T00:34:36.080Z,17.25
2018-07-03T00:37:05.166Z,17.24
2018-07-03T00:39:34.228Z,17.12
2018-07-03T00:42:03.317Z,16.98
2018-07-03T00:44:32.432Z,16.96
2018-07-03T00:47:01.579Z,16.97
2018-07-03T00:49:30.699Z,16.94
2018-07-03T00:51:59.788Z,16.77
2018-07-03T00:54:28.881Z,16.72
2018-07-03T00:56:57.991Z,16.71
2018-07-03T00:59:27.068Z,16.75
2018-07-03T01:01:56.135Z,16.73
2018-07-03T01:04:25.264Z,16.64
2018-07-03T01:06:54.356Z,16.63
2018-07-03T01:09:23.444Z,16.66
2018-07-03T01:11:52.518Z,16.61
2018-07-03T01:14:21.603Z,16.52
2018-07-03T01:16:50.684Z,16.40
2018-07-03T01:19:20.156Z,16.42
2018-07-03T01:21:49.236Z,16.36
2018-07-03T01:24:18.653Z,16.28
2018-07-03T01:26:47.729Z,16.31
2018-07-03T01:29:16.822Z,16.32
2018-07-03T01:31:45.910Z,16.38
2018-07-03T01:34:14.996Z,16.34
2018-07-03T01:36:44.068Z,16.26
2018-07-03T01:39:13.161Z,16.13
2018-07-03T01:41:42.228Z,16.07
2018-07-03T01:44:11.316Z,16.05
2018-07-03T01:46:40.386Z,16.06
2018-07-03T01:49:09.484Z,16.10
2018-07-03T01:51:38.562Z,16.16
2018-07-03T01:54:07.657Z,16.13
2018-07-03T01:56:36.752Z,15.99
2018-07-03T01:59:05.840Z,15.91
2018-07-03T02:01:34.937Z,15.94
2018-07-03T02:04:04.018Z,15.92
2018-07-03T02:06:33.084Z,15.82
2018-07-03T02:09:02.180Z,15.78
2018-07-03T02:11:31.247Z,15.78
2018-07-03T02:14:00.348Z,15.73
2018-07-03T02:16:29.424Z,15.63
2018-07-03T02:18:58.528Z,15.52
2018-07-03T02:21:27.600Z,15.48
2018-07-03T02:23:56.697Z,15.43
2018-07-03T02:26:25.792Z,15.46
2018-07-03T02:28:54.916Z,15.47
2018-07-03T02:31:24.347Z,15.51
2018-07-03T02:33:53.829Z,15.44
2018-07-03T02:36:23.149Z,15.37
2018-07-03T02:38:52.218Z,15.43
2018-07-03T02:41:21.376Z,15.51
2018-07-03T02:43:50.507Z,15.34
2018-07-03T02:46:19.571Z,15.39
2018-07-03T02:48:48.672Z,15.46
2018-07-03T02:51:17.745Z,15.41
2018-07-03T02:53:46.844Z,15.32
2018-07-03T02:56:15.940Z,15.27
2018-07-03T02:58:45.041Z,15.32
2018-07-03T03:01:14.146Z,15.33
2018-07-03T03:03:43.270Z,15.31
2018-07-03T03:06:12.337Z,15.32
2018-07-03T03:08:41.452Z,15.35
2018-07-03T03:11:10.521Z,15.19
2018-07-03T03:13:39.624Z,15.02
2018-07-03T03:16:08.729Z,14.84
2018-07-03T03:18:37.992Z,14.66
2018-07-03T03:21:07.055Z,14.65
2018-07-03T03:23:36.169Z,14.68
2018-07-03T03:26:05.275Z,14.72
2018-07-03T03:28:34.375Z,14.69
2018-07-03T03:31:03.456Z,14.68
2018-07-03T03:33:32.559Z,14.64
2018-07-03T03:36:01.637Z,14.64
2018-07-03T03:38:30.746Z,14.70
2018-07-03T03:40:59.833Z,14.73
2018-07-03T03:43:28.940Z,14.81
2018-07-03T03:45:58.016Z,14.80
2018-07-03T03:48:27.136Z,14.92
2018-07-03T03:50:56.436Z,15.14
2018-07-03T03:53:25.559Z,15.19
2018-07-03T03:55:54.727Z,15.04
2018-07-03T03:58:23.871Z,15.06
2018-07-03T04:00:53.074Z,15.15
2018-07-03T04:03:22.167Z,15.22
2018-07-03T04:05:51.306Z,15.21
2018-07-03T04:08:20.448Z,15.23
2018-07-03T04:10:49.597Z,15.23
2018-07-03T04:13:18.743Z,15.26
2018-07-03T04:15:47.939Z,15.33
2018-07-03T04:18:29.341Z,15.47
2018-07-03T04:20:58.542Z,15.51
2018-07-03T04:23:28.049Z,15.51
2018-07-03T04:25:57.254Z,15.51
2018-07-03T04:28:26.521Z,15.64
2018-07-03T04:30:55.829Z,15.65
2018-07-03T04:33:25.850Z,15.69
2018-07-03T04:35:55.069Z,15.81
2018-07-03T04:38:24.211Z,15.95
2018-07-03T04:40:53.291Z,16.14
2018-07-03T04:43:22.378Z,16.34
2018-07-03T04:45:51.469Z,16.54
2018-07-03T04:48:20.545Z,16.69
2018-07-03T04:50:49.664Z,16.91
2018-07-03T04:53:18.740Z,17.11
2018-07-03T04:55:47.839Z,17.28
2018-07-03T04:58:16.901Z,17.35
2018-07-03T05:00:46.005Z,17.43
2018-07-03T05:03:15.088Z,17.61
2018-07-03T05:05:44.218Z,17.69
2018-07-03T05:08:13.289Z,17.71
2018-07-03T05:10:42.388Z,17.82
2018-07-03T05:13:11.464Z,17.81
2018-07-03T05:15:40.561Z,17.84
2018-07-03T05:18:09.631Z,17.92
2018-07-03T05:20:38.732Z,18.03
2018-07-03T05:23:07.826Z,18.23
2018-07-03T05:25:36.918Z,18.22
2018-07-03T05:28:05.984Z,18.21
2018-07-03T05:30:35.071Z,18.32
2018-07-03T05:33:04.231Z,18.47
2018-07-03T05:35:33.301Z,18.73
2018-07-03T05:38:02.410Z,18.94
2018-07-03T05:40:31.524Z,18.98
2018-07-03T05:43:00.658Z,19.06
2018-07-03T05:45:29.708Z,19.07
2018-07-03T05:47:58.796Z,19.28
2018-07-03T05:50:28.097Z,19.59
2018-07-03T05:52:57.040Z,19.81
2018-07-03T05:55:26.110Z,19.90
2018-07-03T05:57:55.215Z,19.99
2018-07-03T06:00:24.295Z,20.11
2018-07-03T06:02:53.404Z,20.39
2018-07-03T06:05:22.496Z,20.59
2018-07-03T06:07:51.588Z,20.94
2018-07-03T06:10:20.669Z,21.17
2018-07-03T06:12:49.765Z,21.37
2018-07-03T06:15:18.850Z,21.59
2018-07-03T06:17:47.965Z,21.75
2018-07-03T06:20:17.035Z,21.83
2018-07-03T06:22:46.153Z,21.87
2018-07-03T06:25:15.216Z,21.96
2018-07-03T06:27:44.496Z,21.99
2018-07-03T06:30:13.568Z,22.07
2018-07-03T06:32:42.684Z,22.15
2018-07-03T06:35:12.676Z,22.13
2018-07-03T06:37:41.772Z,22.09
2018-07-03T06:40:10.788Z,22.09
2018-07-03T06:42:39.882Z,22.20
2018-07-03T06:45:09.252Z,22.18
2018-07-03T06:47:38.373Z,22.13
2018-07-03T06:50:07.501Z,22.27
2018-07-03T06:52:36.587Z,22.45
2018-07-03T06:55:05.737Z,22.67
2018-07-03T06:57:34.821Z,22.83
2018-07-03T07:00:05.811Z,22.90
2018-07-03T07:02:34.884Z,22.93
2018-07-03T07:05:04.089Z,23.14
2018-07-03T07:07:33.226Z,23.17
2018-07-03T07:10:02.319Z,23.29
2018-07-03T07:12:31.417Z,23.40
2018-07-03T07:15:00.521Z,23.50
2018-07-03T07:17:29.638Z,23.41
2018-07-03T07:19:58.724Z,23.35
2018-07-03T07:22:27.824Z,23.49
2018-07-03T07:24:56.921Z,23.57
2018-07-03T07:27:26.065Z,23.74
2018-07-03T07:29:55.155Z,23.86
2018-07-03T07:32:24.237Z,23.71
2018-07-03T07:34:53.352Z,23.69
2018-07-03T07:37:22.591Z,23.67
2018-07-03T07:39:51.689Z,23.80
2018-07-03T07:42:20.801Z,23.94
2018-07-03T07:44:49.916Z,24.06
2018-07-03T07:47:18.984Z,24.80
2018-07-03T07:49:48.096Z,24.79
2018-07-03T07:52:17.172Z,24.86
2018-07-03T07:54:46.305Z,24.87
2018-07-03T07:57:15.401Z,24.93
2018-07-03T07:59:44.536Z,24.98
2018-07-03T08:02:13.607Z,25.04
2018-07-03T08:04:42.712Z,25.00
2018-07-03T08:07:11.794Z,25.08
2018-07-03T08:09:40.888Z,25.20
2018-07-03T08:12:09.972Z,25.13
2018-07-03T08:14:40.085Z,25.38
2018-07-03T08:17:09.160Z,25.60
2018-07-03T08:19:38.240Z,25.75
2018-07-03T08:22:07.415Z,25.76
2018-07-03T08:24:36.492Z,25.83
2018-07-03T08:27:05.616Z,25.88
2018-07-03T08:29:34.728Z,25.96
2018-07-03T08:32:03.908Z,26.05
2018-07-03T08:34:32.975Z,26.08
2018-07-03T08:37:02.276Z,26.06
2018-07-03T08:39:31.461Z,26.13
2018-07-03T08:42:00.540Z,26.27
2018-07-03T08:44:29.636Z,26.39
2018-07-03T08:46:58.775Z,26.47
2018-07-03T08:49:27.932Z,26.51
2018-07-03T08:51:57.164Z,26.46
2018-07-03T08:54:26.651Z,26.60
2018-07-03T08:56:56.777Z,26.78
2018-07-03T08:59:25.960Z,26.88
2018-07-03T09:01:55.063Z,27.04
2018-07-03T09:04:24.442Z,27.11
2018-07-03T09:06:53.536Z,27.16
2018-07-03T09:09:22.632Z,27.22
2018-07-03T09:11:51.744Z,27.29
2018-07-03T09:14:21.392Z,27.30
2018-07-03T09:16:50.511Z,27.33
2018-07-03T09:19:19.612Z,27.38
2018-07-03T09:21:48.715Z,27.41
2018-07-03T09:24:17.795Z,27.48
2018-07-03T09:26:46.896Z,27.58
2018-07-03T09:29:15.976Z,27.58
2018-07-03T09:31:45.097Z,27.63
2018-07-03T09:34:14.223Z,27.44
2018-07-03T09:36:43.284Z,27.52
2018-07-03T09:39:12.376Z,27.57
2018-07-03T09:41:42.567Z,27.68
2018-07-03T09:44:11.721Z,27.80
2018-07-03T09:46:40.793Z,28.00
2018-07-03T09:49:09.921Z,27.98
2018-07-03T09:51:39.020Z,28.05
2018-07-03T09:54:08.124Z,27.91
2018-07-03T09:56:37.204Z,27.81
2018-07-03T09:59:06.309Z,28.07
2018-07-03T10:01:35.372Z,28.29
2018-07-03T10:04:04.469Z,28.38
2018-07-03T10:06:33.573Z,28.39
2018-07-03T10:09:02.676Z,28.44
2018-07-03T10:11:31.760Z,28.44
2018-07-03T10:14:00.952Z,28.29
2018-07-03T10:16:30.034Z,28.17
2018-07-03T10:18:59.156Z,28.21
2018-07-03T10:21:28.192Z,28.29
2018-07-03T10:23:57.308Z,28.42
2018-07-03T10:26:26.412Z,28.58
2018-07-03T10:28:55.669Z,28.70
2018-07-03T10:31:25.760Z,28.80
2018-07-03T10:33:55.101Z,28.85
2018-07-03T10:36:24.453Z,28.89
2018-07-03T10:38:53.713Z,28.83
2018-07-03T10:41:22.852Z,28.83
2018-07-03T10:43:52.056Z,28.90
2018-07-03T10:46:21.239Z,29.03
2018-07-03T10:48:50.572Z,29.05
2018-07-03T10:51:21.988Z,28.89
2018-07-03T10:53:52.527Z,28.42
2018-07-03T10:56:22.916Z,28.40
2018-07-03T10:58:53.306Z,28.20
2018-07-03T11:01:23.750Z,28.08
2018-07-03T11:03:54.016Z,28.00
2018-07-03T11:06:23.328Z,27.98
2018-07-03T11:08:52.479Z,27.99
2018-07-03T11:11:21.648Z,27.95
2018-07-03T11:13:50.860Z,27.98
2018-07-03T11:16:20.056Z,28.07
2018-07-03T11:18:49.174Z,28.19
2018-07-03T11:21:18.276Z,28.11
2018-07-03T11:23:47.681Z,27.81
2018-07-03T11:26:17.772Z,27.69
2018-07-03T11:28:46.910Z,27.84
2018-07-03T11:31:16.085Z,27.82
2018-07-03T11:33:45.370Z,27.95
2018-07-03T11:36:14.519Z,27.83
2018-07-03T11:38:43.640Z,28.04
2018-07-03T11:41:12.778Z,28.20
2018-07-03T11:43:41.873Z,28.29
2018-07-03T11:46:11.021Z,28.19
2018-07-03T11:48:40.134Z,28.25
2018-07-03T11:51:09.276Z,28.20
2018-07-03T11:53:38.436Z,28.04
2018-07-03T11:56:07.476Z,27.86
2018-07-03T11:58:36.552Z,27.63
2018-07-03T12:01:05.662Z,27.76
2018-07-03T12:03:34.750Z,27.99
2018-07-03T12:06:04.571Z,28.23
2018-07-03T12:08:33.678Z,28.07
2018-07-03T12:11:02.787Z,28.10
2018-07-03T12:13:31.876Z,28.11
2018-07-03T12:16:00.987Z,28.37
2018-07-03T12:18:35.440Z,28.60
2018-07-03T12:21:04.668Z,28.74
2018-07-03T12:23:33.733Z,28.73
2018-07-03T12:26:03.234Z,28.68
2018-07-03T12:28:32.724Z,28.69
2018-07-03T12:31:01.854Z,28.58
2018-07-03T12:33:30.932Z,28.66
2018-07-03T12:36:00.360Z,28.64
2018-07-03T12:38:29.532Z,28.54
2018-07-03T12:40:58.625Z,28.50
2018-07-03T12:43:30.473Z,28.66
2018-07-03T12:45:59.575Z,28.78
2018-07-03T12:48:28.797Z,28.78
2018-07-03T12:50:57.891Z,28.80
2018-07-03T12:53:27.006Z,28.77
2018-07-03T12:55:56.128Z,28.77
2018-07-03T12:58:25.217Z,28.48
2018-07-03T13:00:54.597Z,28.65
2018-07-03T13:03:23.753Z,28.66
2018-07-03T13:05:52.829Z,28.70
2018-07-03T13:08:21.969Z,28.75
2018-07-03T13:10:51.686Z,28.74
2018-07-03T13:13:20.849Z,28.89
2018-07-03T13:15:49.971Z,28.86
2018-07-03T13:18:19.925Z,28.95
2018-07-03T13:20:49.805Z,28.86
2018-07-03T13:23:19.017Z,28.80
2018-07-03T13:25:48.092Z,29.40
2018-07-03T13:28:17.215Z,29.23
2018-07-03T13:30:46.296Z,29.07
2018-07-03T13:33:15.384Z,28.89
2018-07-03T13:35:44.492Z,28.94
2018-07-03T13:38:13.578Z,28.89
2018-07-03T13:40:42.643Z,28.85
2018-07-03T13:43:11.803Z,28.99
2018-07-03T13:45:40.892Z,29.16
2018-07-03T13:48:10.018Z,29.24
2018-07-03T13:50:39.227Z,29.24
2018-07-03T13:53:08.325Z,29.90
2018-07-03T13:55:37.489Z,30.11
2018-07-03T13:58:06.835Z,30.39
2018-07-03T14:00:35.940Z,30.60
2018-07-03T14:03:05.029Z,30.38
2018-07-03T14:05:34.138Z,30.49
2018-07-03T14:08:03.277Z,30.55
2018-07-03T14:10:32.368Z,30.45
2018-07-03T14:13:01.453Z,30.63
2018-07-03T14:15:30.557Z,30.36
2018-07-03T14:17:59.619Z,30.30
2018-07-03T14:20:28.724Z,30.14
2018-07-03T14:22:57.783Z,29.68
2018-07-03T14:25:26.884Z,29.50
2018-07-03T14:27:55.956Z,29.47
2018-07-03T14:30:25.052Z,29.38
2018-07-03T14:32:54.140Z,29.48
2018-07-03T14:35:23.224Z,29.55
2018-07-03T14:37:52.292Z,29.36
2018-07-03T14:40:21.404Z,29.31
2018-07-03T14:42:50.469Z,29.41
2018-07-03T14:45:19.553Z,29.51
2018-07-03T14:47:48.624Z,29.61
2018-07-03T14:50:17.748Z,29.64
2018-07-03T14:52:46.833Z,29.67
2018-07-03T14:55:15.904Z,29.54
2018-07-03T14:57:45.021Z,29.59
2018-07-03T15:00:14.089Z,29.73
2018-07-03T15:02:43.189Z,29.78
2018-07-03T15:05:12.256Z,29.74
2018-07-03T15:07:41.351Z,29.79
2018-07-03T15:10:10.433Z,29.62
2018-07-03T15:12:39.524Z,29.46
2018-07-03T15:15:08.602Z,29.30
2018-07-03T15:17:37.692Z,29.36
2018-07-03T15:20:06.760Z,29.33
2018-07-03T15:22:35.861Z,29.29
2018-07-03T15:25:05.053Z,29.39
2018-07-03T15:27:34.140Z,29.51
2018-07-03T15:30:03.268Z,29.61
2018-07-03T15:32:32.360Z,29.67
2018-07-03T15:35:01.429Z,29.54
2018-07-03T15:37:30.512Z,29.45
2018-07-03T15:39:59.580Z,29.50
2018-07-03T15:42:28.776Z,29.60
2018-07-03T15:45:10.965Z,29.65
2018-07-03T15:47:40.057Z,29.62
2018-07-03T15:50:10.388Z,29.60
2018-07-03T15:52:39.908Z,29.70
2018-07-03T15:55:09.600Z,29.63
2018-07-03T15:57:38.764Z,29.63
2018-07-03T16:00:09.873Z,29.59
2018-07-03T16:02:38.968Z,29.69
2018-07-03T16:06:19.832Z,29.60
2018-07-03T16:09:05.192Z,29.47
2018-07-03T16:11:34.282Z,29.42
2018-07-03T16:14:03.440Z,29.54
2018-07-03T16:16:32.556Z,29.49
2018-07-03T16:19:06.964Z,29.47
2018-07-03T16:21:36.024Z,29.39
2018-07-03T16:24:05.218Z,29.36
2018-07-03T16:26:34.336Z,29.43
2018-07-03T16:29:03.721Z,29.62
2018-07-03T16:31:32.804Z,29.65
2018-07-03T16:34:02.552Z,29.75
2018-07-03T16:36:31.714Z,29.87
2018-07-03T16:39:00.816Z,29.97
2018-07-03T16:41:29.894Z,29.86
2018-07-03T16:43:59.000Z,29.78
2018-07-03T16:46:28.089Z,29.69
2018-07-03T16:48:57.329Z,29.68
2018-07-03T16:51:26.490Z,29.64
2018-07-03T16:53:55.568Z,29.54
2018-07-03T16:56:24.668Z,29.44
2018-07-03T16:58:53.987Z,29.40
2018-07-03T17:01:23.135Z,29.41
2018-07-03T17:03:52.353Z,29.27
2018-07-03T17:06:21.536Z,29.25
2018-07-03T17:08:50.696Z,29.31
2018-07-03T17:11:19.919Z,29.24
2018-07-03T17:13:49.055Z,29.13
2018-07-03T17:16:18.183Z,29.07
2018-07-03T17:18:52.648Z,28.87
2018-07-03T17:21:21.756Z,28.82
2018-07-03T17:23:50.845Z,28.79
2018-07-03T17:26:19.941Z,28.75
2018-07-03T17:28:49.028Z,28.77
2018-07-03T17:31:18.137Z,28.77
2018-07-03T17:33:47.292Z,28.76
2018-07-03T17:36:16.336Z,28.78
2018-07-03T17:38:45.412Z,28.75
2018-07-03T17:41:26.000Z,28.73
2018-07-03T17:44:08.116Z,28.52
2018-07-03T17:46:37.225Z,28.46
2018-07-03T17:49:06.293Z,28.44
2018-07-03T17:51:35.411Z,28.49
2018-07-03T17:54:04.543Z,28.43
2018-07-03T17:56:33.662Z,28.40
2018-07-03T17:59:02.788Z,28.40
2018-07-03T18:01:31.880Z,28.32
2018-07-03T18:04:00.956Z,28.42
2018-07-03T18:06:30.060Z,28.49
2018-07-03T18:08:59.171Z,28.54
2018-07-03T18:11:28.280Z,28.61
2018-07-03T18:13:57.370Z,28.60
2018-07-03T18:16:26.468Z,28.56
2018-07-03T18:19:00.940Z,28.57
2018-07-03T18:21:30.041Z,28.42
2018-07-03T18:23:59.120Z,28.36
2018-07-03T18:26:28.231Z,28.27
2018-07-03T18:28:57.317Z,28.23
2018-07-03T18:31:26.388Z,28.22
2018-07-03T18:33:55.539Z,28.15
2018-07-03T18:36:24.875Z,28.06
2018-07-03T18:38:53.732Z,27.99
2018-07-03T18:41:22.980Z,27.94
2018-07-03T18:43:52.288Z,27.77
2018-07-03T18:46:21.422Z,27.57
2018-07-03T18:48:50.468Z,27.32
2018-07-03T18:51:19.667Z,27.09
2018-07-03T18:53:48.692Z,26.89
2018-07-03T18:56:17.764Z,26.78
2018-07-03T18:58:46.872Z,26.47
2018-07-03T19:01:15.977Z,26.32
2018-07-03T19:03:45.116Z,26.28
2018-07-03T19:06:14.324Z,26.14
2018-07-03T19:08:44.372Z,26.15
2018-07-03T19:11:13.569Z,25.93
2018-07-03T19:13:42.729Z,25.76
2018-07-03T19:16:11.912Z,25.71
2018-07-03T19:18:41.117Z,26.51
2018-07-03T19:21:10.320Z,25.79
2018-07-03T19:23:39.508Z,25.63
2018-07-03T19:26:08.613Z,25.51
2018-07-03T19:28:37.871Z,25.45
2018-07-03T19:31:07.340Z,25.38
2018-07-03T19:33:37.152Z,25.26
2018-07-03T19:36:06.570Z,25.14
2018-07-03T19:38:35.686Z,25.12
2018-07-03T19:41:04.760Z,24.87
2018-07-03T19:43:37.148Z,24.77
2018-07-03T19:46:06.732Z,24.75
2018-07-03T19:48:35.828Z,24.63
2018-07-03T19:51:04.968Z,24.55
2018-07-03T19:53:34.033Z,24.38
2018-07-03T19:56:03.201Z,24.36
2018-07-03T19:58:32.315Z,24.28
2018-07-03T20:01:01.393Z,24.32
2018-07-03T20:03:30.467Z,24.46
2018-07-03T20:05:59.607Z,24.52
2018-07-03T20:08:28.768Z,24.40
2018-07-03T20:10:57.868Z,24.45
2018-07-03T20:13:26.946Z,24.40
2018-07-03T20:15:56.039Z,24.45
2018-07-03T20:18:25.107Z,24.25
2018-07-03T20:20:54.204Z,24.11
2018-07-03T20:23:23.276Z,24.08
2018-07-03T20:25:52.368Z,24.03
2018-07-03T20:28:21.444Z,24.09
2018-07-03T20:30:50.530Z,24.16
2018-07-03T20:33:19.612Z,24.16
2018-07-03T20:35:48.705Z,24.21
2018-07-03T20:38:17.772Z,24.18
2018-07-03T20:40:53.689Z,24.15
2018-07-03T20:43:23.161Z,24.05
2018-07-03T20:45:52.264Z,23.95
2018-07-03T20:48:21.420Z,23.85
2018-07-03T20:50:50.521Z,23.80
2018-07-03T20:53:19.612Z,23.78
2018-07-03T20:55:48.698Z,23.81
2018-07-03T20:58:17.824Z,23.75
2018-07-03T21:00:46.861Z,23.79
2018-07-03T21:03:15.964Z,23.72
2018-07-03T21:05:45.114Z,23.60
2018-07-03T21:08:14.225Z,23.60
2018-07-03T21:10:43.325Z,23.53
2018-07-03T21:13:12.411Z,23.46
2018-07-03T21:15:41.585Z,23.32
2018-07-03T21:18:10.704Z,23.21
2018-07-03T21:20:39.771Z,23.06
2018-07-03T21:23:08.869Z,23.03
2018-07-03T21:25:37.948Z,22.95
2018-07-03T21:28:07.036Z,22.82
2018-07-03T21:30:36.096Z,22.78
2018-07-03T21:33:05.200Z,22.74
2018-07-03T21:35:34.277Z,22.66
2018-07-03T21:38:03.368Z,22.53
2018-07-03T21:40:32.436Z,22.45
2018-07-03T21:43:01.523Z,22.30
2018-07-03T21:45:30.580Z,22.24
2018-07-03T21:47:59.676Z,22.17
2018-07-03T21:50:28.739Z,22.17
2018-07-03T21:52:57.859Z,22.10
2018-07-03T21:55:26.929Z,22.03
2018-07-03T21:57:56.029Z,22.00
2018-07-03T22:00:31.144Z,21.99
2018-07-03T22:03:00.197Z,21.89
2018-07-03T22:05:29.272Z,21.82
2018-07-03T22:07:58.373Z,21.77
2018-07-03T22:10:27.441Z,21.79
2018-07-03T22:12:56.537Z,21.82
2018-07-03T22:15:25.616Z,21.80
2018-07-03T22:17:54.702Z,21.77
2018-07-03T22:20:23.765Z,21.76
2018-07-03T22:22:52.905Z,21.67
2018-07-03T22:25:21.983Z,21.64
2018-07-03T22:27:51.068Z,21.49
2018-07-03T22:30:20.133Z,21.45
2018-07-03T22:32:49.223Z,21.30
2018-07-03T22:35:18.374Z,21.17
2018-07-03T22:37:47.420Z,21.19
2018-07-03T22:40:16.496Z,21.16
2018-07-03T22:42:45.632Z,21.10
2018-07-03T22:45:14.708Z,21.08
2018-07-03T22:47:43.812Z,21.06
2018-07-03T22:50:12.876Z,21.03
2018-07-03T22:52:41.992Z,21.01
2018-07-03T22:55:11.112Z,20.92
2018-07-03T22:57:40.207Z,20.94
2018-07-03T23:00:09.289Z,20.92
2018-07-03T23:02:38.108Z,20.87
2018-07-03T23:05:07.181Z,20.79
2018-07-03T23:07:36.292Z,20.79
2018-07-03T23:10:05.374Z,20.67
2018-07-03T23:12:34.443Z,20.60
2018-07-03T23:15:03.548Z,20.57
2018-07-03T23:17:32.624Z,20.41
2018-07-03T23:20:01.720Z,20.35
2018-07-03T23:22:30.788Z,20.30
2018-07-03T23:24:59.880Z,20.30
2018-07-03T23:27:28.947Z,20.28
2018-07-03T23:29:58.050Z,20.23
2018-07-03T23:32:27.113Z,20.22
2018-07-03T23:34:56.207Z,20.01
2018-07-03T23:37:25.284Z,19.89
2018-07-03T23:39:54.376Z,19.85
2018-07-03T23:42:23.456Z,19.91
2018-07-03T23:44:52.552Z,19.94
2018-07-03T23:47:33.123Z,20.00
2018-07-03T23:50:19.432Z,19.94
2018-07-03T23:53:06.024Z,19.79
2018-07-03T23:55:52.341Z,19.71
2018-07-03T23:58:38.856Z,19.68
